Kistarcsa, Hungary

8:19 AM CET on December 08, 2016 (GMT +0100)
| | Change Station

Elev -9999 ft 0.00 °N, 0.00 °E | Updated 4 minutes ago

Fog
Fog
°F
Feels Like °F
N
Wind Variable Wind from North
Gusts mph

Today
High -- | Low -- °F
--% Chance of Precip.
Yesterday
High -- | Low -- °F
Precip. -- in
Pressure 30.69 in
Visibility 0.2 miles
Clouds Overcast 300 ft
Dew Point Not available.
Humidity Not available.
Rainfall --
Snow Depth Not available.
7:18 AM 3:51 PM
First Quarter, 60% visible
METAR LHBP 080700Z 18006KT 0400 R13L/0900N R13R/P1500N FZFG OVC003 M04/M04 Q1039 BECMG 1100 BR BKN004
Pressure 30.69 in
Visibility 0.2 miles
Clouds Overcast 300 ft
Dew Point Not available.
Humidity Not available.
Rainfall --
Snow Depth Not available.
7:18 AM 3:51 PM
First Quarter, 60% visible
METAR LHBP 080700Z 18006KT 0400 R13L/0900N R13R/P1500N FZFG OVC003 M04/M04 Q1039 BECMG 1100 BR BKN004

10-Day Weather Forecast

×

Almanac

Astronomy

Dec. 08, 2016 Rise Set
Actual Time
Civil Twilight
Nautical Twilight
Astronomical Twilight
Moon
Length of Visible Light
Length of Day
Tomorrow will be .
, % of the Moon is Illuminated

Today's Extremes

Country Highs Country Lows

Community

WunderPhotos

Upload Photos

1,956,259 photos uploaded!

WunderBlog® & News

Nearby

Air Quality

  Air Quality AQ Index Pollutant
Not available.

Snow Depth

Station Depth Elevation

Earthquake Activity

City Distance Mag. Time & Date
Minimum magnitude displayed is 2.5.

Coastal Water Temperatures

Place Temperature

Stations

Nearby Weather Stations

Station Location Temp. Windchill Dew Point Humidity Wind Precip. Elev Updated Type